Latest Weather Observations for Griffith

IDN60801

Issued at 3:05 pm EST Wednesday 17 September 2014 (issued every 30 minutes, with the page automatically refreshed every 10 minutes)

About weather observations | Map of weather stations | Latest weather observations for NSW | Other Formats
Station Details ID: 075041 Name: GRIFFITH AIRPORT AWS Lat: -34.25 Lon: 146.07 Height: 134.0 m
Data from the previous 72 hours. | See also: Recent months at Griffith
Date/Time
EST
Temp
°C
App
Temp
°C
Dew
Point
Rel
Hum
%
Delta-T
°C
Wind Press
QNH
hPa
Press
MSL
hPa
Rain
since 9 am
mm
Dir
 
Spd
km/h
Gust
km/h
Spd
kts
Gust
kts
17/03:00pm 18.1 10.1 0.7 31 7.7 W 32 46 17 25 1015.3 1015.4 0.0
17/02:30pm 18.3 11.0 2.6 35 7.2 WSW 30 43 16 23 1015.2 - 0.0
17/02:00pm 17.5 10.2 2.3 36 6.9 W 30 41 16 22 1015.2 - 0.0
17/01:30pm 16.8 10.2 2.0 37 6.7 WSW 26 43 14 23 1015.4 - 0.0
17/01:00pm 16.0 8.8 2.8 41 6.0 WSW 30 41 16 22 1015.6 - 0.0
17/12:30pm 17.1 10.5 4.1 42 6.1 WSW 28 41 15 22 1015.7 - 0.0
17/12:00pm 15.8 9.2 4.2 46 5.4 W 28 35 15 19 1016.0 1016.1 0.0
17/11:30am 15.7 10.1 5.3 50 5.0 WSW 24 32 13 17 1016.2 - 0.0
17/11:00am 16.2 10.4 6.1 51 4.9 W 26 35 14 19 1016.4 - 0.0
17/10:30am 15.1 10.2 6.7 57 4.1 WSW 22 30 12 16 1016.6 - 0.0
17/10:00am 15.1 9.7 6.4 56 4.2 WSW 24 32 13 17 1016.6 - 0.0
17/09:30am 14.3 9.8 6.9 61 3.6 WSW 20 26 11 14 1016.7 - 0.0
17/09:00am 13.2 8.7 6.8 65 3.1 WSW 20 28 11 15 1016.7 1016.7 0.0
17/08:30am 11.8 7.1 6.1 68 2.7 W 20 26 11 14 1016.7 - 0.0
17/08:00am 11.1 7.7 6.0 71 2.4 W 13 19 7 10 1016.6 - 0.0
17/07:30am 10.2 6.9 6.5 78 1.7 WNW 13 15 7 8 1016.4 - 0.0
17/07:00am 9.2 7.7 7.0 86 1.0 NNW 4 11 2 6 1015.8 - 0.0
17/06:30am 8.8 8.0 6.6 86 1.0 CALM 0 0 0 0 1015.6 - 0.0
17/06:00am 8.8 7.6 6.4 85 1.1 NNW 2 6 1 3 1015.5 1015.6 0.0
17/05:30am 8.6 7.5 6.7 88 0.9 NW 2 9 1 5 1015.6 - 0.0
17/05:00am 8.6 7.2 7.1 90 0.7 NW 4 7 2 4 1015.2 - 0.0
17/04:30am 8.8 6.9 6.9 88 0.9 N 6 7 3 4 1014.9 - 0.0
17/04:00am 8.6 7.8 6.7 88 0.9 CALM 0 0 0 0 1014.8 - 0.0
17/03:30am 8.5 7.7 6.5 87 0.9 CALM 0 0 0 0 1014.6 - 0.0
17/03:00am 8.6 6.7 6.6 87 0.9 W 6 9 3 5 1014.8 1014.9 0.0
17/02:30am 8.6 7.9 6.9 89 0.8 WNW 0 2 0 1 1014.7 - 0.0
17/02:00am 8.1 7.3 6.6 90 0.7 CALM 0 0 0 0 1014.5 - 0.0
17/01:30am 8.1 7.2 6.2 88 0.9 CALM 0 0 0 0 1014.7 - 0.0
17/01:00am 7.3 6.4 6.1 92 0.5 CALM 0 0 0 0 1014.8 - 0.0
17/12:30am 6.6 5.5 4.9 89 0.7 CALM 0 0 0 0 1014.8 - 0.0
17/12:00am 7.1 6.0 5.3 88 0.8 N 0 0 0 0 1014.6 1014.7 0.0
 
Date/Time
EST
Temp
°C
App
Temp
°C
Dew
Point
Rel
Hum
%
Delta-T
°C
Wind Press
QNH
hPa
Press
MSL
hPa
Rain
since 9 am
mm
Dir
 
Spd
km/h
Gust
km/h
Spd
kts
Gust
kts
16/11:30pm 7.3 5.9 5.3 87 0.9 N 2 9 1 5 1014.6 - 0.0
16/11:00pm 7.6 6.6 5.6 87 0.9 CALM 0 0 0 0 1014.6 - 0.0
16/10:30pm 8.6 7.7 6.2 85 1.1 CALM 0 0 0 0 1014.6 - 0.0
16/10:00pm 8.7 7.7 5.6 81 1.4 CALM 0 7 0 4 1014.3 - 0.0
16/09:30pm 10.3 9.5 6.3 76 1.9 CALM 0 2 0 1 1014.0 - 0.0
16/09:00pm 10.8 8.9 6.7 76 1.9 SW 6 11 3 6 1013.7 1013.8 0.0
16/08:30pm 11.1 10.5 7.4 78 1.8 CALM 0 6 0 3 1013.5 - 0.0
16/08:00pm 11.0 10.3 7.1 77 1.9 CALM 0 0 0 0 1013.2 - 0.0
16/07:30pm 11.8 9.9 6.9 72 2.4 NW 6 7 3 4 1012.9 - 0.0
16/07:00pm 13.4 11.1 7.6 68 2.9 WNW 9 11 5 6 1012.6 - 0.0
16/06:30pm 15.2 12.3 8.0 62 3.6 WNW 13 17 7 9 1012.4 - 0.0
16/06:00pm 15.7 12.8 8.2 61 3.8 W 13 19 7 10 1012.2 1012.2 0.0
16/05:30pm 15.9 11.9 8.2 60 3.9 W 19 28 10 15 1012.1 - 0.0
16/05:00pm 16.0 11.5 8.5 61 3.8 W 22 33 12 18 1011.9 - 0.0
16/04:30pm 16.0 11.9 8.7 62 3.8 W 20 30 11 16 1011.7 - 0.0
16/04:00pm 15.8 10.5 8.5 62 3.7 W 26 35 14 19 1011.6 - 0.0
16/03:30pm 15.6 11.1 8.6 63 3.6 W 22 30 12 16 1011.4 - 0.0
16/03:00pm 15.3 11.5 9.0 66 3.2 W 19 26 10 14 1011.3 1011.3 0.0
16/02:30pm 15.1 11.7 9.2 68 3.0 W 17 22 9 12 1011.3 - 0.0
16/02:00pm 14.5 9.8 9.3 71 2.7 WNW 24 35 13 19 1011.2 - 0.0
16/01:30pm 14.2 8.8 9.4 73 2.5 WNW 28 35 15 19 1011.3 - 0.0
16/01:00pm 14.0 8.9 9.2 73 2.5 W 26 35 14 19 1011.3 - 0.0
16/12:30pm 14.3 8.9 9.5 73 2.5 W 28 39 15 21 1011.5 - 0.0
16/12:00pm 15.2 9.5 9.8 70 2.8 W 30 41 16 22 1011.5 1011.5 0.0
16/11:30am 15.5 10.6 10.1 70 2.8 W 26 32 14 17 1011.5 - 0.0
16/11:00am 14.6 10.5 10.0 74 2.4 W 22 30 12 16 1011.7 - 0.0
16/10:30am 13.7 9.1 9.6 76 2.1 W 24 32 13 17 1011.8 - 0.0
16/10:00am 13.9 8.2 9.9 77 2.1 W 30 43 16 23 1011.7 - 0.0
16/09:30am 14.5 9.4 10.7 78 2.0 W 28 41 15 22 1011.5 - 0.0
16/09:00am 13.8 10.0 11.3 85 1.3 W 22 30 12 16 1011.5 1011.5 0.2
16/08:30am 13.3 11.3 12.7 96 0.3 W 15 20 8 11 1011.4 - 0.2
16/08:11am 12.5 11.1 12.3 99 0.1 WNW 11 13 6 7 1011.3 - 0.2
16/08:00am 12.3 10.5 12.1 99 0.1 W 13 17 7 9 1011.2 - 0.2
16/07:51am 12.3 10.1 12.1 99 0.1 W 15 20 8 11 1011.0 - 0.2
16/07:30am 12.4 8.3 11.6 95 0.4 W 24 37 13 20 1010.9 - 0.0
16/07:00am 13.6 9.0 9.8 78 2.0 W 24 35 13 19 1010.3 - 0.0
16/06:30am 13.6 9.4 9.6 77 2.1 W 22 30 12 16 1009.9 - 0.0
16/06:00am 13.1 10.2 8.2 72 2.5 NW 13 22 7 12 1009.7 1009.7 0.0
16/05:30am 12.7 9.5 7.0 68 2.8 NW 13 19 7 10 1009.2 - 0.0
16/05:00am 12.4 9.2 6.7 68 2.7 NNW 13 19 7 10 1008.9 - 0.0
16/04:30am 12.1 9.2 6.4 68 2.7 NNW 11 13 6 7 1008.5 - 0.0
16/04:00am 11.5 8.2 6.2 70 2.5 NNW 13 17 7 9 1008.2 - 0.0
16/03:30am 11.0 8.0 6.0 71 2.3 NW 11 13 6 7 1008.0 - 0.0
16/03:00am 10.2 7.1 5.4 72 2.2 N 11 15 6 8 1007.9 1008.0 0.0
16/02:30am 11.4 8.3 5.5 67 2.7 NNW 11 15 6 8 1008.0 - 0.0
16/02:00am 11.2 7.8 6.1 71 2.4 N 13 17 7 9 1008.0 - 0.0
16/01:30am 10.6 7.5 5.4 70 2.4 NNW 11 13 6 7 1008.1 - 0.0
16/01:00am 10.8 7.9 4.7 66 2.8 NNW 9 13 5 7 1008.3 - 0.0
16/12:30am 12.3 8.6 4.5 59 3.6 NW 13 15 7 8 1008.2 - 0.0
16/12:00am 13.8 9.8 4.7 54 4.3 NW 15 19 8 10 1008.0 1008.1 0.0
 
Date/Time
EST
Temp
°C
App
Temp
°C
Dew
Point
Rel
Hum
%
Delta-T
°C
Wind Press
QNH
hPa
Press
MSL
hPa
Rain
since 9 am
mm
Dir
 
Spd
km/h
Gust
km/h
Spd
kts
Gust
kts
15/11:30pm 14.5 10.4 4.2 50 4.8 NW 15 19 8 10 1008.0 - 0.0
15/11:00pm 16.1 11.7 2.9 41 6.0 NW 15 20 8 11 1007.9 - 0.0
15/10:30pm 17.2 12.5 1.2 34 7.1 NNW 15 20 8 11 1007.7 - 0.0
15/10:00pm 17.7 12.6 0.8 32 7.5 N 17 22 9 12 1008.0 - 0.0
15/09:30pm 20.4 14.7 0.8 27 8.9 N 20 26 11 14 1007.6 - 0.0
15/09:00pm 21.2 13.7 1.0 26 9.3 NE 30 41 16 22 1007.5 1007.6 0.0
15/08:30pm 20.7 14.7 1.1 27 9.0 NE 22 28 12 15 1007.8 - 0.0
15/08:00pm 20.2 14.6 1.1 28 8.7 NE 20 28 11 15 1007.9 - 0.0
15/07:30pm 20.4 14.4 1.3 28 8.7 NE 22 30 12 16 1008.1 - 0.0
15/07:00pm 20.6 14.2 1.0 27 8.9 NE 24 30 13 16 1008.3 - 0.0
15/06:30pm 21.2 15.6 1.0 26 9.3 NE 20 24 11 13 1008.6 - 0.0
15/06:00pm 21.7 16.2 0.3 24 9.7 NE 19 26 10 14 1008.8 1008.8 0.0
15/05:30pm 22.5 17.1 1.5 25 9.8 NE 19 26 10 14 1008.8 - 0.0
15/05:00pm 23.6 17.1 0.0 21 10.8 NNE 24 32 13 17 1008.9 - 0.0
15/04:30pm 23.8 16.9 0.2 21 10.9 N 26 33 14 18 1009.2 - 0.0
15/04:00pm 23.7 17.8 1.4 23 10.5 NNE 22 32 12 17 1009.4 - 0.0
15/03:30pm 24.0 18.1 1.6 23 10.6 NNE 22 32 12 17 1009.9 - 0.0
15/03:00pm 23.7 17.9 2.5 25 10.2 NNE 22 32 12 17 1010.2 1010.2 0.0
15/02:30pm 23.5 18.2 1.8 24 10.3 NNE 19 32 10 17 1010.7 - 0.0
15/02:00pm 23.7 17.8 2.0 24 10.3 N 22 30 12 16 1011.5 - 0.0
15/01:30pm 24.2 18.9 1.8 23 10.7 N 19 28 10 15 1011.7 - 0.0
15/01:00pm 24.0 18.0 1.0 22 10.8 NNW 22 32 12 17 1012.4 - 0.0
15/12:30pm 24.3 17.3 -0.8 19 11.4 NNW 26 33 14 18 1012.8 - 0.0
15/12:00pm 24.5 17.8 -1.3 18 11.6 N 24 37 13 20 1013.4 1013.5 0.0
15/11:30am 24.4 19.0 1.3 22 10.9 NNE 19 28 10 15 1013.7 - 0.0
15/11:00am 23.2 17.3 1.5 24 10.2 N 22 32 12 17 1014.2 - 0.0
15/10:30am 22.5 16.8 2.6 27 9.5 NNE 22 32 12 17 1014.6 - 0.0
15/10:00am 21.9 16.2 2.6 28 9.2 N 22 32 12 17 1015.0 - 0.0
15/09:30am 20.6 15.8 2.4 30 8.5 N 17 30 9 16 1015.2 - 0.0
15/09:00am 19.4 13.2 2.3 32 7.9 NE 24 32 13 17 1015.0 1015.1 0.0
15/08:30am 18.1 13.7 2.8 36 7.1 NNE 15 22 8 12 1015.3 - 0.0
15/08:00am 16.2 13.7 4.6 46 5.5 NE 7 11 4 6 1015.5 - 0.0
15/07:30am 13.8 9.7 4.1 52 4.5 ENE 15 17 8 9 1015.4 - 0.0
15/07:00am 13.4 10.8 4.3 54 4.2 NE 7 11 4 6 1015.3 - 0.0
15/06:30am 10.3 7.4 4.7 68 2.5 ENE 9 11 5 6 1015.3 - 0.0
15/06:00am 8.2 5.2 3.9 74 1.9 ENE 9 11 5 6 1015.3 1015.4 0.0
15/05:30am 8.1 6.7 3.8 74 1.9 CALM 0 0 0 0 1015.4 - 0.0
15/05:00am 7.9 6.5 3.4 73 1.9 CALM 0 0 0 0 1015.5 - 0.0
15/04:30am 8.0 6.5 2.9 70 2.2 CALM 0 0 0 0 1015.6 - 0.0
15/04:00am 8.2 6.7 2.9 69 2.3 CALM 0 0 0 0 1016.0 - 0.0
15/03:30am 8.1 6.6 3.2 71 2.1 CALM 0 0 0 0 1015.9 - 0.0
15/03:00am 8.9 7.5 3.5 69 2.3 CALM 0 0 0 0 1016.0 1016.1 0.0
15/02:30am 8.4 5.7 2.8 68 2.4 NE 6 7 3 4 1016.4 - 0.0
15/02:00am 8.2 5.0 3.1 70 2.2 E 9 11 5 6 1016.6 - 0.0
15/01:30am 10.3 7.1 3.3 62 3.1 E 9 11 5 6 1016.7 - 0.0
15/01:00am 10.5 6.5 3.1 60 3.2 E 13 15 7 8 1016.9 - 0.0
15/12:30am 11.6 8.4 3.1 56 3.8 E 9 13 5 7 1017.3 - 0.0
15/12:00am 10.4 5.7 3.0 60 3.2 E 17 19 9 10 1017.4 1017.4 0.0
 
Date/Time
EST
Temp
°C
App
Temp
°C
Dew
Point
Rel
Hum
%
Delta-T
°C
Wind Press
QNH
hPa
Press
MSL
hPa
Rain
since 9 am
mm
Dir
 
Spd
km/h
Gust
km/h
Spd
kts
Gust
kts
14/11:30pm 11.9 6.8 2.9 54 4.0 E 19 20 10 11 1017.4 - 0.0
14/11:00pm 11.8 6.7 3.1 55 3.8 E 19 20 10 11 1017.6 - 0.0
14/10:30pm 11.4 6.7 3.4 58 3.5 E 17 20 9 11 1017.9 - 0.0
14/10:00pm 11.5 7.2 3.0 56 3.7 E 15 17 8 9 1018.0 - 0.0
14/09:30pm 12.3 7.2 3.0 53 4.1 E 19 20 10 11 1017.8 - 0.0
14/09:00pm 13.3 8.9 2.5 48 4.8 ENE 15 17 8 9 1017.9 1017.9 0.0
14/08:30pm 13.2 8.8 2.7 49 4.7 ENE 15 17 8 9 1018.1 - 0.0
14/08:00pm 13.0 8.7 3.4 52 4.3 ENE 15 17 8 9 1018.2 - 0.0
14/07:30pm 13.1 9.3 3.7 53 4.3 E 13 13 7 7 1018.3 - 0.0
14/07:00pm 14.3 10.6 4.3 51 4.6 E 13 15 7 8 1018.1 - 0.0
14/06:30pm 15.3 11.7 3.1 44 5.6 ENE 11 13 6 7 1017.8 - 0.0
14/06:00pm 18.8 17.1 3.8 37 7.1 NE 2 7 1 4 1017.8 1017.8 0.0
14/05:30pm 21.0 19.4 2.3 29 8.8 CALM 0 0 0 0 1017.9 - 0.0
14/05:00pm 21.3 19.2 1.6 27 9.1 SSE 2 9 1 5 1017.7 - 0.0
14/04:30pm 21.9 19.0 1.5 26 9.5 NW 6 11 3 6 1017.5 - 0.0
14/04:00pm 22.2 18.9 2.3 27 9.4 W 9 20 5 11 1017.6 - 0.0
14/03:30pm 22.4 19.5 2.5 27 9.5 SSW 7 15 4 8 1017.9 - 0.0

Other Formats:

Comma delimited format used in spreadsheet applications
http://www.bom.gov.au/fwo/IDN60801/IDN60801.95704.axf

JavaScript Object Notation format (JSON) in row-major order
http://www.bom.gov.au/fwo/IDN60801/IDN60801.95704.json